Time;durP1;ratioP1;P1;durP2;ratioP2;P2;SDS_P1;SDS_P2;PMS_P1;PMS_P2;Temp;Humidity;BMP_temperature;BMP_pressure;BME280_temperature;BME280_humidity;BME280_pressure;Samples;Min_cycle;Max_cycle;Signal;HPM_P1;HPM_P2
2022/06/21 00:02:23;;;;;;;2.90;2.00;;;;;;;;;;104108;1297;22524;-29
2022/06/21 00:05:00;;;;;;;2.90;1.80;;;;;;;;;;104120;1297;22590;-29
2022/06/21 00:07:37;;;;;;;2.60;2.00;;;;;;;;;;104108;1297;23748;-29
2022/06/21 00:10:16;;;;;;;2.00;1.20;;;;;;;;;;104151;1297;22499;-28
2022/06/21 00:12:53;;;;;;;2.90;2.40;;;;;;;;;;104106;1297;22597;-25
2022/06/21 00:15:30;;;;;;;3.80;2.00;;;;;;;;;;104134;1297;22757;-25
2022/06/21 00:18:09;;;;;;;1.90;1.20;;;;;;;;;;104147;1302;22495;-27
2022/06/21 00:20:47;;;;;;;1.80;1.00;;;;;;;;;;104047;1298;23968;-26
2022/06/21 00:23:25;;;;;;;2.30;1.70;;;;;;;;;;104191;1297;22847;-30
2022/06/21 00:26:03;;;;;;;2.50;1.70;;;;;;;;;;104099;1297;24945;-30
2022/06/21 00:28:40;;;;;;;1.50;1.20;;;;;;;;;;104052;1297;23713;-30
2022/06/21 00:31:19;;;;;;;4.60;2.60;;;;;;;;;;104120;1297;22504;-29
2022/06/21 00:33:56;;;;;;;2.10;1.20;;;;;;;;;;104135;1297;22785;-24
2022/06/21 00:36:34;;;;;;;3.50;2.00;;;;;;;;;;104176;1297;22503;-24
2022/06/21 00:39:13;;;;;;;3.50;2.50;;;;;;;;;;104022;1297;22487;-28
2022/06/21 00:41:52;;;;;;;2.90;2.60;;;;;;;;;;104121;1297;22632;-24
2022/06/21 00:44:35;;;;;;;2.70;2.40;;;;;;;;;;104121;1297;23025;-29
2022/06/21 00:47:14;;;;;;;2.80;1.70;;;;;;;;;;104155;1297;22644;-29
2022/06/21 00:49:53;;;;;;;2.90;2.00;;;;;;;;;;103965;1297;22617;-28
2022/06/21 00:52:34;;;;;;;2.40;1.80;;;;;;;;;;104016;1300;22608;-26
2022/06/21 00:55:15;;;;;;;5.40;2.40;;;;;;;;;;104193;1297;22760;-29
2022/06/21 00:57:53;;;;;;;12.50;3.60;;;;;;;;;;104195;1297;22744;-24
2022/06/21 01:00:30;;;;;;;6.30;3.00;;;;;;;;;;104171;1297;22729;-29
2022/06/21 01:03:11;;;;;;;6.10;1.00;;;;;;;;;;104125;1297;22641;-29
2022/06/21 01:05:48;;;;;;;8.50;3.30;;;;;;;;;;104228;1297;23954;-29
2022/06/21 01:08:27;;;;;;;4.10;2.80;;;;;;;;;;104102;1297;22748;-28
2022/06/21 01:11:06;;;;;;;1.90;1.50;;;;;;;;;;104101;1297;22501;-26
2022/06/21 01:13:44;;;;;;;4.90;2.80;;;;;;;;;;104173;1297;22728;-29
2022/06/21 01:16:23;;;;;;;3.90;2.40;;;;;;;;;;104194;1297;22492;-23
2022/06/21 01:19:01;;;;;;;9.50;3.00;;;;;;;;;;104023;1300;22969;-28
2022/06/21 01:21:38;;;;;;;2.10;1.60;;;;;;;;;;104103;1297;22838;-24
2022/06/21 01:24:17;;;;;;;1.60;0.90;;;;;;;;;;104133;1297;22623;-28
2022/06/21 01:26:56;;;;;;;3.00;1.40;;;;;;;;;;104148;1297;23746;-30
2022/06/21 01:29:35;;;;;;;8.90;2.90;;;;;;;;;;104026;1298;22498;-29
2022/06/21 01:32:12;;;;;;;6.30;2.80;;;;;;;;;;104177;1297;24243;-28
2022/06/21 01:34:50;;;;;;;2.70;2.40;;;;;;;;;;104151;1297;22510;-29
2022/06/21 01:37:28;;;;;;;2.10;1.60;;;;;;;;;;104092;1297;22628;-25
2022/06/21 01:40:08;;;;;;;4.10;3.50;;;;;;;;;;104107;1297;22489;-24
2022/06/21 01:42:46;;;;;;;3.50;2.70;;;;;;;;;;104155;1297;22744;-24
2022/06/21 01:45:25;;;;;;;5.60;2.80;;;;;;;;;;104173;1297;22502;-28
2022/06/21 01:48:07;;;;;;;4.30;3.20;;;;;;;;;;104169;1297;22766;-24
2022/06/21 01:50:45;;;;;;;6.60;3.20;;;;;;;;;;104167;1297;22495;-30
2022/06/21 01:53:22;;;;;;;6.30;3.80;;;;;;;;;;104156;1297;22512;-26
2022/06/21 01:56:01;;;;;;;5.70;2.80;;;;;;;;;;104141;1297;22535;-24
2022/06/21 01:58:41;;;;;;;3.10;2.20;;;;;;;;;;104101;1297;23225;-24
2022/06/21 02:01:21;;;;;;;4.00;3.40;;;;;;;;;;104122;1297;22489;-28
2022/06/21 02:03:58;;;;;;;6.70;3.40;;;;;;;;;;104158;1297;22668;-28
2022/06/21 02:06:37;;;;;;;4.00;2.90;;;;;;;;;;104066;1297;22705;-29
2022/06/21 02:09:19;;;;;;;4.80;3.70;;;;;;;;;;104116;1297;22704;-28
2022/06/21 02:11:57;;;;;;;2.70;2.30;;;;;;;;;;104128;1297;22671;-28
2022/06/21 02:14:37;;;;;;;3.60;2.80;;;;;;;;;;104184;1297;22687;-24
2022/06/21 02:17:15;;;;;;;3.70;3.30;;;;;;;;;;103962;1297;22727;-24
2022/06/21 02:19:55;;;;;;;7.80;3.80;;;;;;;;;;104136;1297;22769;-28
2022/06/21 02:22:32;;;;;;;4.00;3.60;;;;;;;;;;104192;1297;22514;-24
2022/06/21 02:25:13;;;;;;;4.10;3.00;;;;;;;;;;104175;1297;22499;-23
2022/06/21 02:27:51;;;;;;;3.00;2.10;;;;;;;;;;104194;1297;22623;-24
2022/06/21 02:30:29;;;;;;;3.30;3.00;;;;;;;;;;104143;1297;22502;-29
2022/06/21 02:33:09;;;;;;;5.00;2.50;;;;;;;;;;104097;1297;22490;-24
2022/06/21 02:35:50;;;;;;;2.90;2.60;;;;;;;;;;104218;1297;22841;-24
2022/06/21 02:38:31;;;;;;;4.30;2.90;;;;;;;;;;104098;1299;22516;-28
2022/06/21 02:41:10;;;;;;;5.60;3.20;;;;;;;;;;104214;1297;22492;-28
2022/06/21 02:43:50;;;;;;;2.30;2.10;;;;;;;;;;104244;1297;22497;-26
2022/06/21 02:46:29;;;;;;;1.90;1.70;;;;;;;;;;104240;1297;22742;-30
2022/06/21 02:49:06;;;;;;;9.70;2.70;;;;;;;;;;104136;1296;22512;-28
2022/06/21 02:51:47;;;;;;;10.30;3.40;;;;;;;;;;104150;1297;22744;-29
2022/06/21 02:54:27;;;;;;;6.40;3.50;;;;;;;;;;104206;1297;23850;-24
2022/06/21 02:57:07;;;;;;;3.40;2.10;;;;;;;;;;104153;1297;22728;-29
2022/06/21 02:59:44;;;;;;;2.60;2.20;;;;;;;;;;104147;1297;22497;-26
2022/06/21 03:02:23;;;;;;;4.40;3.90;;;;;;;;;;104171;1297;22506;-26
2022/06/21 03:05:01;;;;;;;3.10;2.20;;;;;;;;;;104221;1297;22492;-28
2022/06/21 03:07:39;;;;;;;5.30;3.60;;;;;;;;;;104062;1297;22486;-28
2022/06/21 03:10:18;;;;;;;4.10;3.50;;;;;;;;;;104138;1302;22501;-28
2022/06/21 03:13:00;;;;;;;8.20;5.40;;;;;;;;;;104147;1297;22489;-24
2022/06/21 03:15:38;;;;;;;6.10;4.10;;;;;;;;;;104092;1297;22627;-24
2022/06/21 03:18:17;;;;;;;6.90;6.20;;;;;;;;;;104186;1297;22502;-30
2022/06/21 03:20:54;;;;;;;3.00;2.80;;;;;;;;;;104134;1297;23715;-29
2022/06/21 03:23:32;;;;;;;4.70;4.20;;;;;;;;;;104164;1297;22629;-28
2022/06/21 03:26:09;;;;;;;5.10;4.10;;;;;;;;;;104170;1297;22500;-25
2022/06/21 03:28:47;;;;;;;3.10;2.80;;;;;;;;;;104196;1297;22826;-28
2022/06/21 03:31:26;;;;;;;4.30;3.10;;;;;;;;;;104155;1297;22587;-25
2022/06/21 03:34:05;;;;;;;6.20;3.80;;;;;;;;;;104146;1297;22508;-29
2022/06/21 03:36:42;;;;;;;5.80;3.00;;;;;;;;;;104167;1298;22623;-31
2022/06/21 03:39:21;;;;;;;7.40;3.30;;;;;;;;;;104170;1297;22498;-25
2022/06/21 03:41:58;;;;;;;2.70;2.40;;;;;;;;;;104202;1297;22817;-24
2022/06/21 03:44:38;;;;;;;10.60;4.70;;;;;;;;;;104135;1297;22866;-25
2022/06/21 03:47:17;;;;;;;2.50;2.30;;;;;;;;;;104219;1296;22725;-28
2022/06/21 03:49:57;;;;;;;2.10;1.80;;;;;;;;;;104142;1297;22606;-25
2022/06/21 03:55:19;;;;;;;8.30;2.20;;;;;;;;;;104111;1297;22496;-24
2022/06/21 03:58:00;;;;;;;2.20;1.90;;;;;;;;;;104118;1295;23542;-24
2022/06/21 04:00:40;;;;;;;10.50;3.30;;;;;;;;;;104207;1297;22495;-31
2022/06/21 04:03:21;;;;;;;8.90;3.90;;;;;;;;;;104148;1297;22843;-24
2022/06/21 04:06:01;;;;;;;3.90;2.80;;;;;;;;;;104197;1297;22713;-29
2022/06/21 04:08:41;;;;;;;5.80;2.30;;;;;;;;;;104129;1297;22495;-24
2022/06/21 04:11:20;;;;;;;3.20;2.70;;;;;;;;;;104243;1297;22957;-25
2022/06/21 04:14:02;;;;;;;4.00;2.70;;;;;;;;;;104151;1297;22495;-25
2022/06/21 04:16:43;;;;;;;6.50;2.10;;;;;;;;;;103850;1297;347427;-29
2022/06/21 04:19:24;;;;;;;3.40;2.80;;;;;;;;;;104158;1297;22518;-25
2022/06/21 04:22:05;;;;;;;2.00;1.40;;;;;;;;;;104204;1297;25010;-25
2022/06/21 04:24:46;;;;;;;4.10;3.50;;;;;;;;;;104130;1297;22725;-26
2022/06/21 04:27:27;;;;;;;3.30;2.20;;;;;;;;;;104190;1297;22590;-29
2022/06/21 04:30:06;;;;;;;2.30;1.70;;;;;;;;;;104176;1297;25041;-29
2022/06/21 04:32:45;;;;;;;6.80;3.30;;;;;;;;;;104160;1297;22502;-29
2022/06/21 04:35:26;;;;;;;5.00;3.90;;;;;;;;;;104147;1297;22748;-29
2022/06/21 04:38:04;;;;;;;2.90;1.00;;;;;;;;;;104259;1297;22601;-29
2022/06/21 04:40:41;;;;;;;3.60;3.00;;;;;;;;;;104112;1297;22495;-29
2022/06/21 04:43:21;;;;;;;1.60;1.50;;;;;;;;;;104059;1297;22495;-29
2022/06/21 04:46:02;;;;;;;7.70;1.90;;;;;;;;;;104157;1297;22498;-29
2022/06/21 04:48:42;;;;;;;1.50;1.30;;;;;;;;;;104145;1297;22715;-27
2022/06/21 04:51:23;;;;;;;1.90;1.60;;;;;;;;;;104109;1297;22492;-24
2022/06/21 04:54:02;;;;;;;2.90;2.70;;;;;;;;;;104191;1297;22498;-29
2022/06/21 04:56:59;;;;;;;2.90;2.70;;;;;;;;;;104143;1297;22628;-29
2022/06/21 04:59:37;;;;;;;2.10;1.80;;;;;;;;;;104106;1297;23694;-31
2022/06/21 05:02:17;;;;;;;4.00;2.00;;;;;;;;;;104158;1297;22502;-28
2022/06/21 05:04:57;;;;;;;2.80;1.90;;;;;;;;;;104141;1297;22492;-31
2022/06/21 05:07:35;;;;;;;2.40;1.20;;;;;;;;;;104090;1297;24406;-26
2022/06/21 05:10:14;;;;;;;2.50;1.80;;;;;;;;;;104148;1297;23149;-24
2022/06/21 05:12:51;;;;;;;2.30;1.70;;;;;;;;;;104122;1297;22703;-38
2022/06/21 05:15:31;;;;;;;30.00;3.10;;;;;;;;;;104171;1297;22613;-26
2022/06/21 05:18:11;;;;;;;1.60;0.90;;;;;;;;;;104079;1297;23578;-28
2022/06/21 05:20:51;;;;;;;2.50;1.30;;;;;;;;;;104205;1297;22733;-25
2022/06/21 05:23:29;;;;;;;2.80;1.90;;;;;;;;;;104282;1297;23825;-24
2022/06/21 05:26:09;;;;;;;1.00;0.90;;;;;;;;;;104200;1297;22518;-29
2022/06/21 05:28:49;;;;;;;0.70;0.60;;;;;;;;;;104251;1297;22603;-28
2022/06/21 05:31:28;;;;;;;7.20;1.30;;;;;;;;;;104216;1297;22492;-24
2022/06/21 05:34:08;;;;;;;4.10;1.50;;;;;;;;;;103991;1298;22629;-25
2022/06/21 05:36:49;;;;;;;2.00;1.30;;;;;;;;;;104199;1297;22508;-28
2022/06/21 05:39:30;;;;;;;2.10;1.10;;;;;;;;;;104205;1297;22493;-24
2022/06/21 05:42:10;;;;;;;3.80;1.50;;;;;;;;;;104201;1297;22763;-29
2022/06/21 05:44:49;;;;;;;2.20;0.90;;;;;;;;;;104170;1297;22843;-24
2022/06/21 05:47:28;;;;;;;1.00;0.70;;;;;;;;;;104187;1297;24733;-23
2022/06/21 05:52:50;;;;;;;1.60;0.90;;;;;;;;;;104183;1297;22499;-30
2022/06/21 05:55:28;;;;;;;3.60;0.70;;;;;;;;;;104164;1297;22599;-28
2022/06/21 05:58:10;;;;;;;1.20;0.50;;;;;;;;;;104178;1297;22495;-24
2022/06/21 06:00:50;;;;;;;1.40;0.30;;;;;;;;;;104189;1297;22577;-24
2022/06/21 06:03:31;;;;;;;18.00;0.70;;;;;;;;;;104137;1297;23748;-24
2022/06/21 06:06:10;;;;;;;2.70;0.80;;;;;;;;;;104120;1297;24263;-28
2022/06/21 06:08:49;;;;;;;2.00;0.60;;;;;;;;;;104018;1297;22510;-28
2022/06/21 06:11:57;;;;;;;1.40;1.00;;;;;;;;;;104152;1297;24934;-28
2022/06/21 06:14:28;;;;;;;2.70;1.50;;;;;;;;;;104140;1297;22844;-24
2022/06/21 06:17:07;;;;;;;0.70;0.70;;;;;;;;;;104212;1297;22723;-23
2022/06/21 06:19:46;;;;;;;1.00;0.60;;;;;;;;;;104149;1297;22625;-28
2022/06/21 06:22:28;;;;;;;2.40;1.30;;;;;;;;;;104106;1297;22748;-31
2022/06/21 06:25:10;;;;;;;1.40;0.70;;;;;;;;;;104129;1297;24208;-24
2022/06/21 06:27:51;;;;;;;0.80;0.70;;;;;;;;;;104094;1297;22748;-29
2022/06/21 06:30:32;;;;;;;6.00;0.50;;;;;;;;;;104248;1297;22505;-24
2022/06/21 06:33:12;;;;;;;1.40;0.60;;;;;;;;;;104177;1297;22590;-24
2022/06/21 06:35:50;;;;;;;1.10;0.50;;;;;;;;;;104164;1297;23542;-31
2022/06/21 06:38:27;;;;;;;3.50;0.50;;;;;;;;;;104112;1297;24292;-26
2022/06/21 06:41:08;;;;;;;2.10;0.40;;;;;;;;;;104189;1297;22495;-28
2022/06/21 06:43:45;;;;;;;1.50;1.00;;;;;;;;;;104144;1297;22590;-24
2022/06/21 06:46:29;;;;;;;1.30;0.70;;;;;;;;;;104208;1297;23494;-30
2022/06/21 06:49:11;;;;;;;3.10;0.30;;;;;;;;;;104149;1297;22590;-28
2022/06/21 06:51:52;;;;;;;0.80;0.20;;;;;;;;;;104131;1297;24902;-24
2022/06/21 06:54:29;;;;;;;2.40;0.60;;;;;;;;;;104177;1297;23926;-28
2022/06/21 06:57:10;;;;;;;2.50;0.90;;;;;;;;;;104173;1297;22507;-30
2022/06/21 06:59:48;;;;;;;1.20;0.50;;;;;;;;;;104147;1297;22745;-30
2022/06/21 07:02:29;;;;;;;1.20;0.70;;;;;;;;;;104085;1297;22501;-28
2022/06/21 07:05:26;;;;;;;1.10;0.50;;;;;;;;;;104111;1297;22503;-28
2022/06/21 07:08:14;;;;;;;0.60;0.40;;;;;;;;;;104164;1297;22501;-30
2022/06/21 07:10:52;;;;;;;2.10;0.60;;;;;;;;;;104113;1297;22510;-28
2022/06/21 07:13:29;;;;;;;1.90;0.70;;;;;;;;;;104147;1297;22504;-29
2022/06/21 07:16:09;;;;;;;2.60;0.30;;;;;;;;;;104143;1297;22885;-30
2022/06/21 07:18:47;;;;;;;2.40;0.40;;;;;;;;;;104221;1297;23710;-28
2022/06/21 07:21:25;;;;;;;1.80;0.80;;;;;;;;;;104186;1297;22508;-28
2022/06/21 07:24:03;;;;;;;0.60;0.30;;;;;;;;;;104037;1297;22670;-30
2022/06/21 07:26:42;;;;;;;1.80;0.30;;;;;;;;;;104163;1297;23100;-24
2022/06/21 07:29:23;;;;;;;0.50;0.50;;;;;;;;;;104143;1297;24211;-24
2022/06/21 07:32:05;;;;;;;11.50;1.00;;;;;;;;;;104182;1297;22627;-24
2022/06/21 07:34:43;;;;;;;1.00;0.50;;;;;;;;;;104120;1297;23950;-24
2022/06/21 07:37:23;;;;;;;19.50;0.60;;;;;;;;;;103972;1297;22493;-31
2022/06/21 07:40:04;;;;;;;0.70;0.50;;;;;;;;;;104121;1297;22502;-24
2022/06/21 07:42:43;;;;;;;1.30;0.60;;;;;;;;;;104155;1297;22635;-24
2022/06/21 07:45:22;;;;;;;2.20;0.90;;;;;;;;;;104169;1297;22512;-24
2022/06/21 07:48:04;;;;;;;2.40;0.80;;;;;;;;;;104209;1297;22497;-24
2022/06/21 07:50:44;;;;;;;0.80;0.70;;;;;;;;;;104250;1297;22505;-28
2022/06/21 07:53:25;;;;;;;0.30;0.30;;;;;;;;;;104209;1296;22487;-25
2022/06/21 07:56:03;;;;;;;3.20;1.00;;;;;;;;;;104165;1297;24285;-29
2022/06/21 07:58:45;;;;;;;0.40;0.40;;;;;;;;;;104144;1297;22635;-27
2022/06/21 08:06:51;;;;;;;0.60;0.60;;;;;;;;;;104084;1297;22492;-24
2022/06/21 08:09:31;;;;;;;1.10;0.60;;;;;;;;;;104183;1297;22493;-26
2022/06/21 08:12:09;;;;;;;0.50;0.40;;;;;;;;;;104192;1297;22503;-24
2022/06/21 08:14:47;;;;;;;0.60;0.40;;;;;;;;;;104172;1297;22492;-28
2022/06/21 08:17:27;;;;;;;0.90;0.30;;;;;;;;;;104066;1300;22856;-24
2022/06/21 08:20:08;;;;;;;0.40;0.40;;;;;;;;;;104187;1297;22496;-28
2022/06/21 08:22:45;;;;;;;0.50;0.50;;;;;;;;;;104189;1297;25293;-30
2022/06/21 08:25:26;;;;;;;0.80;0.50;;;;;;;;;;104155;1297;22617;-28
2022/06/21 08:28:06;;;;;;;0.30;0.30;;;;;;;;;;104149;1297;22504;-30
2022/06/21 08:30:47;;;;;;;1.80;0.80;;;;;;;;;;103958;1297;22853;-29
2022/06/21 08:33:28;;;;;;;0.60;0.30;;;;;;;;;;104118;1297;22601;-29
2022/06/21 08:36:06;;;;;;;0.90;0.50;;;;;;;;;;104213;1297;23944;-29
2022/06/21 08:38:45;;;;;;;0.50;0.40;;;;;;;;;;104109;1297;24189;-28
2022/06/21 08:44:43;;;;;;;1.80;1.10;;;;;;;;;;104110;1297;22513;-29
2022/06/21 08:47:24;;;;;;;1.00;0.50;;;;;;;;;;104157;1297;23503;-24
2022/06/21 08:50:05;;;;;;;1.50;0.50;;;;;;;;;;104181;1297;25046;-26
2022/06/21 08:52:46;;;;;;;0.70;0.50;;;;;;;;;;104152;1297;22508;-25
2022/06/21 08:55:27;;;;;;;0.90;0.50;;;;;;;;;;104088;1297;22498;-24
2022/06/21 08:58:20;;;;;;;1.70;0.30;;;;;;;;;;104172;1297;22515;-28
2022/06/21 09:01:02;;;;;;;0.50;0.40;;;;;;;;;;104014;1300;22621;-24
2022/06/21 09:03:49;;;;;;;0.40;0.30;;;;;;;;;;104158;1297;22498;-25
2022/06/21 09:06:30;;;;;;;2.70;0.40;;;;;;;;;;104107;1297;23546;-29
2022/06/21 09:09:10;;;;;;;0.40;0.20;;;;;;;;;;104207;1297;23793;-29
2022/06/21 09:12:01;;;;;;;0.60;0.40;;;;;;;;;;104265;1297;22518;-28
2022/06/21 09:14:59;;;;;;;1.20;0.40;;;;;;;;;;104103;1297;22500;-25
2022/06/21 09:17:39;;;;;;;0.80;0.60;;;;;;;;;;104030;1297;23457;-28
2022/06/21 09:20:20;;;;;;;6.80;0.30;;;;;;;;;;104211;1297;22498;-23
2022/06/21 09:22:58;;;;;;;1.50;0.60;;;;;;;;;;104233;1297;22843;-29
2022/06/21 09:25:39;;;;;;;0.30;0.20;;;;;;;;;;103960;1297;24245;-28
2022/06/21 09:28:17;;;;;;;11.70;0.80;;;;;;;;;;104164;1297;22601;-28
2022/06/21 09:30:58;;;;;;;0.70;0.70;;;;;;;;;;104167;1297;24198;-28
2022/06/21 09:33:39;;;;;;;1.10;0.60;;;;;;;;;;104145;1297;22516;-27
2022/06/21 09:36:21;;;;;;;1.40;0.40;;;;;;;;;;104116;1297;22496;-24
2022/06/21 09:39:02;;;;;;;1.00;0.80;;;;;;;;;;104221;1297;23540;-26
2022/06/21 09:41:39;;;;;;;0.90;0.20;;;;;;;;;;104251;1297;22623;-25
2022/06/21 09:44:19;;;;;;;1.70;0.50;;;;;;;;;;104122;1297;24248;-24
2022/06/21 09:47:01;;;;;;;6.70;0.40;;;;;;;;;;104151;1297;22602;-28
2022/06/21 09:49:40;;;;;;;3.50;0.30;;;;;;;;;;104165;1297;22497;-28
2022/06/21 09:52:20;;;;;;;1.20;0.50;;;;;;;;;;104120;1297;24224;-24
2022/06/21 09:55:03;;;;;;;2.70;0.70;;;;;;;;;;104046;1297;24291;-24
2022/06/21 09:57:43;;;;;;;1.10;0.40;;;;;;;;;;104124;1297;23546;-24
2022/06/21 10:00:23;;;;;;;0.80;0.50;;;;;;;;;;104211;1297;24714;-24
2022/06/21 10:03:04;;;;;;;0.50;0.20;;;;;;;;;;104001;1300;22621;-28
2022/06/21 10:05:46;;;;;;;0.20;0.20;;;;;;;;;;104070;1299;22488;-28
2022/06/21 10:08:26;;;;;;;0.30;0.20;;;;;;;;;;104009;1300;22496;-24
2022/06/21 10:11:08;;;;;;;1.60;0.60;;;;;;;;;;103991;1299;22533;-25
2022/06/21 10:13:46;;;;;;;1.20;0.50;;;;;;;;;;104047;1299;24292;-28
2022/06/21 10:16:23;;;;;;;0.60;0.30;;;;;;;;;;104001;1299;22718;-26
2022/06/21 10:19:04;;;;;;;0.90;0.40;;;;;;;;;;104056;1299;22622;-23
2022/06/21 10:21:56;;;;;;;0.40;0.30;;;;;;;;;;104127;1299;22504;-24
2022/06/21 10:24:46;;;;;;;0.80;0.30;;;;;;;;;;104014;1299;22504;-28
2022/06/21 10:27:28;;;;;;;1.70;0.40;;;;;;;;;;104033;1299;22694;-28
2022/06/21 10:30:10;;;;;;;0.70;0.30;;;;;;;;;;104014;1299;25229;-26
2022/06/21 10:32:51;;;;;;;0.10;0.10;;;;;;;;;;104066;1299;22801;-25
2022/06/21 10:35:31;;;;;;;0.60;0.40;;;;;;;;;;104115;1299;22505;-28
2022/06/21 10:38:12;;;;;;;2.40;0.60;;;;;;;;;;104093;1299;23473;-28
2022/06/21 10:40:54;;;;;;;4.30;0.30;;;;;;;;;;104056;1299;25474;-28
2022/06/21 10:43:31;;;;;;;1.60;0.50;;;;;;;;;;104137;1299;24013;-30
2022/06/21 10:46:11;;;;;;;0.20;0.10;;;;;;;;;;103939;1299;22495;-29
2022/06/21 10:48:49;;;;;;;0.80;0.40;;;;;;;;;;104059;1299;22600;-29
2022/06/21 10:51:31;;;;;;;5.00;1.40;;;;;;;;;;103932;1299;22978;-23
2022/06/21 10:54:12;;;;;;;0.90;0.50;;;;;;;;;;104035;1299;23531;-24
2022/06/21 10:57:09;;;;;;;0.20;0.00;;;;;;;;;;104055;1299;22490;-28
2022/06/21 11:02:54;;;;;;;0.20;0.10;;;;;;;;;;104017;1299;23864;-28
2022/06/21 11:05:35;;;;;;;1.20;0.40;;;;;;;;;;104007;1299;24364;-26
2022/06/21 11:08:16;;;;;;;0.10;0.10;;;;;;;;;;104062;1299;22501;-30
2022/06/21 11:10:57;;;;;;;0.80;0.50;;;;;;;;;;104112;1299;22877;-25
2022/06/21 11:13:38;;;;;;;0.70;0.30;;;;;;;;;;103960;1300;22870;-25
2022/06/21 11:16:19;;;;;;;0.40;0.30;;;;;;;;;;104019;1299;22515;-25
2022/06/21 11:19:01;;;;;;;3.60;0.40;;;;;;;;;;103964;1299;23051;-29
2022/06/21 11:21:42;;;;;;;2.70;0.50;;;;;;;;;;104064;1299;22517;-25
2022/06/21 11:24:32;;;;;;;0.90;0.20;;;;;;;;;;104088;1299;22622;-25
2022/06/21 11:27:13;;;;;;;1.80;0.40;;;;;;;;;;104046;1299;23533;-25
2022/06/21 11:29:54;;;;;;;0.30;0.20;;;;;;;;;;104035;1299;22495;-24
2022/06/21 11:32:34;;;;;;;0.90;0.20;;;;;;;;;;104150;1300;22493;-28
2022/06/21 11:35:16;;;;;;;1.70;0.30;;;;;;;;;;104118;1299;22503;-24
2022/06/21 11:37:57;;;;;;;0.30;0.20;;;;;;;;;;104142;1299;22500;-28
2022/06/21 11:40:38;;;;;;;0.10;0.10;;;;;;;;;;104034;1299;24357;-26
2022/06/21 11:43:18;;;;;;;0.70;0.30;;;;;;;;;;104129;1299;22645;-28
2022/06/21 11:45:59;;;;;;;0.60;0.50;;;;;;;;;;104077;1299;23998;-24
2022/06/21 11:48:48;;;;;;;0.20;0.20;;;;;;;;;;104042;1299;22503;-25
2022/06/21 11:51:36;;;;;;;1.60;0.20;;;;;;;;;;104013;1299;22524;-29
2022/06/21 11:54:17;;;;;;;0.90;0.30;;;;;;;;;;104091;1299;22631;-25
2022/06/21 11:56:55;;;;;;;1.10;0.40;;;;;;;;;;104022;1299;23890;-28
2022/06/21 11:59:37;;;;;;;0.80;0.30;;;;;;;;;;104067;1301;22628;-25
2022/06/21 12:02:23;;;;;;;0.30;0.20;;;;;;;;;;104014;1299;22493;-28
2022/06/21 12:05:04;;;;;;;1.60;0.20;;;;;;;;;;104006;1299;22499;-29
2022/06/21 12:07:45;;;;;;;2.70;0.30;;;;;;;;;;104098;1299;22768;-31
2022/06/21 12:10:28;;;;;;;6.80;0.30;;;;;;;;;;104056;1299;22723;-25
2022/06/21 12:13:09;;;;;;;1.40;0.30;;;;;;;;;;103987;1300;22511;-30
2022/06/21 12:15:51;;;;;;;0.60;0.20;;;;;;;;;;104056;1299;23990;-26
2022/06/21 12:18:29;;;;;;;0.40;0.40;;;;;;;;;;103443;1299;22504;-28
2022/06/21 12:21:08;;;;;;;1.20;0.40;;;;;;;;;;104067;1299;23601;-24
2022/06/21 12:23:47;;;;;;;0.30;0.30;;;;;;;;;;103969;1299;23799;-27
2022/06/21 12:26:26;;;;;;;0.60;0.40;;;;;;;;;;104066;1301;22528;-28
